createdAt,value
2018-11-06T00:03:15.600Z,27.87
2018-11-06T00:08:20.967Z,28.07
2018-11-06T00:13:31.517Z,28.00
2018-11-06T00:18:36.237Z,26.93
2018-11-06T00:23:41.563Z,27.17
2018-11-06T00:28:46.089Z,28.17
2018-11-06T00:33:50.420Z,27.90
2018-11-06T00:38:55.326Z,25.77
2018-11-06T00:43:59.920Z,28.40
2018-11-06T00:49:04.317Z,26.23
2018-11-06T00:54:09.236Z,28.00
2018-11-06T00:59:13.749Z,25.93
2018-11-06T01:04:18.084Z,27.67
2018-11-06T01:09:23.398Z,26.63
2018-11-06T01:14:27.730Z,26.30
2018-11-06T01:19:33.391Z,27.60
2018-11-06T01:24:37.815Z,29.00
2018-11-06T01:29:42.564Z,27.60
2018-11-06T01:34:51.962Z,28.17
2018-11-06T01:39:56.486Z,27.33
2018-11-06T01:45:01.122Z,27.17
2018-11-06T01:50:06.292Z,27.43
2018-11-06T01:55:11.734Z,27.03
2018-11-06T02:00:17.171Z,27.17
2018-11-06T02:05:21.473Z,28.70
2018-11-06T02:10:26.103Z,28.23
2018-11-06T02:15:30.518Z,29.43
2018-11-06T02:20:34.965Z,27.17
2018-11-06T02:25:39.329Z,25.97
2018-11-06T02:30:43.339Z,27.43
2018-11-06T02:35:48.173Z,27.20
2018-11-06T02:40:53.630Z,27.23
2018-11-06T02:45:58.651Z,27.90
2018-11-06T02:51:04.633Z,27.00
2018-11-06T02:56:10.329Z,27.30
2018-11-06T03:01:15.067Z,26.23
2018-11-06T03:06:19.592Z,26.60
2018-11-06T03:11:24.598Z,27.27
2018-11-06T03:16:34.287Z,27.90
2018-11-06T03:21:38.863Z,27.67
2018-11-06T03:26:43.763Z,25.73
2018-11-06T03:31:49.561Z,26.53
2018-11-06T03:36:53.973Z,25.73
2018-11-06T03:41:58.387Z,26.63
2018-11-06T03:47:03.045Z,26.00
2018-11-06T03:52:07.715Z,26.50
2018-11-06T03:57:12.109Z,26.67
2018-11-06T04:02:16.419Z,25.37
2018-11-06T04:07:21.408Z,25.67
2018-11-06T04:12:26.260Z,26.00
2018-11-06T04:17:32.501Z,26.43
2018-11-06T04:22:36.807Z,24.47
2018-11-06T04:27:41.137Z,24.93
2018-11-06T04:32:46.437Z,26.20
2018-11-06T04:37:50.797Z,25.17
2018-11-06T04:42:56.068Z,24.67
2018-11-06T04:48:00.719Z,24.27
2018-11-06T04:53:06.134Z,24.73
2018-11-06T04:58:11.869Z,25.07
2018-11-06T05:03:16.496Z,23.67
2018-11-06T05:08:20.999Z,26.50
2018-11-06T05:13:25.671Z,23.63
2018-11-06T05:18:30.040Z,24.90
2018-11-06T05:23:34.653Z,24.63
2018-11-06T05:28:40.314Z,25.57
2018-11-06T05:33:45.152Z,25.17
2018-11-06T05:38:49.582Z,25.17
2018-11-06T05:44:03.471Z,25.67
2018-11-06T05:49:07.754Z,26.23
2018-11-06T05:54:12.886Z,26.13
2018-11-06T05:59:17.169Z,24.47
2018-11-06T06:04:36.026Z,25.40
2018-11-06T06:09:40.517Z,25.60
2018-11-06T06:14:44.901Z,25.50
2018-11-06T06:19:50.325Z,25.03
2018-11-06T06:24:55.784Z,25.90
2018-11-06T06:30:03.235Z,24.93
2018-11-06T06:35:08.810Z,25.20
2018-11-06T06:40:15.051Z,24.47
2018-11-06T06:45:29.592Z,25.00
2018-11-06T06:50:35.524Z,25.73
2018-11-06T06:55:40.594Z,27.00
2018-11-06T07:00:44.887Z,26.17
2018-11-06T07:05:59.136Z,26.53
2018-11-06T07:11:03.582Z,25.43
2018-11-06T07:16:09.533Z,25.73
2018-11-06T07:21:14.099Z,23.93
2018-11-06T07:26:41.030Z,23.03
2018-11-06T07:31:45.308Z,22.10
2018-11-06T07:36:50.128Z,22.50
2018-11-06T07:41:54.638Z,22.13
2018-11-06T07:47:04.698Z,22.37
2018-11-06T07:52:10.924Z,24.50
2018-11-06T07:57:15.228Z,23.47
2018-11-06T08:02:19.600Z,21.70
2018-11-06T08:07:42.860Z,20.63
2018-11-06T08:12:49.612Z,22.17
2018-11-06T08:17:54.088Z,21.00
2018-11-06T08:22:58.392Z,22.60
2018-11-06T08:28:02.881Z,20.73
2018-11-06T08:33:07.258Z,20.83
2018-11-06T08:38:11.560Z,21.67
2018-11-06T08:43:15.958Z,20.47
2018-11-06T08:48:20.595Z,20.70
2018-11-06T08:53:24.790Z,21.97
2018-11-06T08:58:29.245Z,21.43
2018-11-06T09:03:33.721Z,20.00
2018-11-06T09:08:38.456Z,19.87
2018-11-06T09:13:43.898Z,20.37
2018-11-06T09:18:55.777Z,20.47
2018-11-06T09:24:00.408Z,19.83
2018-11-06T09:29:04.917Z,19.87
2018-11-06T09:34:09.960Z,20.17
2018-11-06T09:39:15.423Z,18.20
2018-11-06T09:44:19.780Z,19.60
2018-11-06T09:49:25.271Z,21.80
2018-11-06T09:54:32.466Z,20.10
2018-11-06T09:59:37.284Z,20.23
2018-11-06T10:04:41.991Z,18.93
2018-11-06T10:09:46.461Z,18.33
2018-11-06T10:14:52.022Z,17.93
2018-11-06T10:19:56.298Z,17.83
2018-11-06T10:25:00.641Z,16.27
2018-11-06T10:30:06.582Z,16.57
2018-11-06T10:35:20.361Z,16.43
2018-11-06T10:40:24.779Z,15.83
2018-11-06T10:45:29.567Z,14.53
2018-11-06T10:50:37.073Z,14.40
2018-11-06T10:55:44.132Z,13.03
2018-11-06T11:00:54.596Z,13.23
2018-11-06T11:06:13.740Z,12.47
2018-11-06T11:11:18.367Z,12.57
2018-11-06T11:16:25.996Z,13.23
2018-11-06T11:21:32.736Z,12.57
2018-11-06T11:26:37.172Z,12.70
2018-11-06T11:31:41.855Z,13.37
2018-11-06T11:36:47.045Z,12.78
2018-11-06T11:41:51.687Z,11.80
2018-11-06T11:46:56.334Z,11.33
2018-11-06T11:52:01.039Z,11.60
2018-11-06T11:57:06.018Z,11.03
2018-11-06T12:02:10.521Z,11.07
2018-11-06T12:07:15.012Z,11.30
2018-11-06T12:12:19.539Z,10.50
2018-11-06T12:17:25.097Z,11.20
2018-11-06T12:22:29.706Z,9.70
2018-11-06T12:27:34.021Z,9.30
2018-11-06T12:32:38.784Z,9.03
2018-11-06T12:37:48.181Z,8.90
2018-11-06T12:42:54.980Z,8.47
2018-11-06T12:47:59.539Z,9.00
2018-11-06T12:53:05.620Z,9.15
2018-11-06T12:58:10.635Z,8.90
2018-11-06T13:53:58.922Z,10.90
2018-11-06T13:59:05.702Z,12.35
2018-11-06T14:04:10.408Z,12.13
2018-11-06T14:09:15.229Z,12.78
2018-11-06T14:14:19.955Z,14.03
2018-11-06T14:19:25.910Z,14.13
2018-11-06T14:24:30.389Z,14.05
2018-11-06T14:29:34.772Z,12.53
2018-11-06T14:34:39.508Z,10.67
2018-11-06T14:39:44.108Z,11.20
2018-11-06T14:44:58.564Z,12.03
2018-11-06T14:50:03.065Z,11.43
2018-11-06T14:55:09.002Z,11.50
2018-11-06T15:00:20.735Z,11.23
2018-11-06T15:05:25.386Z,12.10
2018-11-06T15:10:30.229Z,12.07
2018-11-06T15:15:34.785Z,12.07
2018-11-06T15:20:39.910Z,12.30
2018-11-06T15:25:45.212Z,11.83
2018-11-06T15:30:49.935Z,14.03
2018-11-06T15:35:59.393Z,15.00
2018-11-06T15:41:04.039Z,15.70
2018-11-06T15:46:14.566Z,16.33
2018-11-06T15:51:19.405Z,15.70
2018-11-06T15:56:24.549Z,16.07
2018-11-06T16:01:29.433Z,16.03
2018-11-06T16:06:34.273Z,15.93
2018-11-06T16:11:38.974Z,16.27
2018-11-06T16:16:44.222Z,16.73
2018-11-06T16:21:57.115Z,17.17
2018-11-06T16:27:03.008Z,16.47
2018-11-06T16:32:24.162Z,15.80
2018-11-06T16:43:17.590Z,17.33
2018-11-06T16:48:28.303Z,17.60
2018-11-06T16:53:39.430Z,19.00
2018-11-06T16:59:01.981Z,19.33
2018-11-06T17:04:17.111Z,20.73
2018-11-06T17:09:27.131Z,19.93
2018-11-06T17:14:33.733Z,20.43
2018-11-06T17:19:41.116Z,20.53
2018-11-06T17:24:48.505Z,20.93
2018-11-06T17:29:56.918Z,22.27
2018-11-06T17:35:02.761Z,21.97
2018-11-06T17:40:10.049Z,22.90
2018-11-06T17:45:18.661Z,22.20
2018-11-06T17:50:29.432Z,23.67
2018-11-06T17:55:35.674Z,22.50
2018-11-06T18:00:47.485Z,23.63
2018-11-06T18:05:56.467Z,23.53
2018-11-06T18:11:14.172Z,25.40
2018-11-06T18:16:19.275Z,25.10
2018-11-06T18:21:29.155Z,25.33
2018-11-06T18:26:34.911Z,25.23
2018-11-06T18:31:41.773Z,26.03
2018-11-06T18:36:46.841Z,25.80
2018-11-06T18:41:51.957Z,25.60
2018-11-06T18:47:02.515Z,26.20
2018-11-06T18:52:22.146Z,27.07
2018-11-06T18:57:33.387Z,26.23
2018-11-06T19:02:39.680Z,26.90
2018-11-06T19:07:45.433Z,28.57
2018-11-06T19:12:51.171Z,29.13
2018-11-06T19:17:56.756Z,27.90
2018-11-06T19:23:13.438Z,27.47
2018-11-06T19:28:18.809Z,27.97
2018-11-06T19:33:27.619Z,30.13
2018-11-06T19:38:37.284Z,28.20
2018-11-06T19:43:50.113Z,28.77
2018-11-06T19:48:56.563Z,29.80
2018-11-06T19:54:01.712Z,28.00
2018-11-06T19:59:10.560Z,29.03
2018-11-06T20:04:27.496Z,29.30
2018-11-06T20:09:32.207Z,30.73
2018-11-06T20:14:46.319Z,31.03
2018-11-06T20:19:54.213Z,30.37
2018-11-06T20:25:05.333Z,29.80
2018-11-06T20:30:13.680Z,31.93
2018-11-06T20:35:18.638Z,31.30
2018-11-06T20:40:26.685Z,30.53
2018-11-06T20:45:32.222Z,30.83
2018-11-06T20:50:38.035Z,32.73
2018-11-06T20:55:50.254Z,32.00
2018-11-06T21:00:55.927Z,32.13
2018-11-06T21:06:02.568Z,30.10
2018-11-06T21:11:11.115Z,31.37
2018-11-06T21:16:27.354Z,31.17
2018-11-06T21:21:36.643Z,31.70
2018-11-06T21:26:42.013Z,30.33
2018-11-06T21:31:46.720Z,32.17
2018-11-06T21:36:51.353Z,33.20
2018-11-06T21:41:56.325Z,33.47
2018-11-06T21:47:01.463Z,33.27
2018-11-06T21:52:06.233Z,31.87
2018-11-06T21:57:11.003Z,32.17
2018-11-06T22:02:15.618Z,30.50
2018-11-06T22:07:20.472Z,31.07
2018-11-06T22:12:25.891Z,30.73
2018-11-06T22:17:31.388Z,31.97
2018-11-06T22:22:37.677Z,31.87
2018-11-06T22:27:45.707Z,31.90
2018-11-06T22:32:50.613Z,32.33
2018-11-06T22:38:05.804Z,31.27
2018-11-06T22:43:12.675Z,31.57
2018-11-06T22:48:18.213Z,32.70
2018-11-06T22:53:32.577Z,32.93
2018-11-06T22:58:38.873Z,31.93
2018-11-06T23:03:53.760Z,32.70
2018-11-06T23:09:02.537Z,32.63
2018-11-06T23:14:09.261Z,32.40
2018-11-06T23:19:20.176Z,34.27
2018-11-06T23:24:38.868Z,33.23
2018-11-06T23:29:44.105Z,33.27
2018-11-06T23:34:53.727Z,33.57
2018-11-06T23:39:58.714Z,33.03
2018-11-06T23:45:05.109Z,34.53
2018-11-06T23:50:11.400Z,35.13
2018-11-06T23:55:18.351Z,34.40
